createdAt,value
2023-12-02T00:00:18.582Z,84.35
2023-12-02T00:01:58.971Z,85.09
2023-12-02T00:03:39.432Z,85.1
2023-12-02T00:05:19.751Z,85.2
2023-12-02T00:07:00.121Z,85.44
2023-12-02T00:08:40.484Z,85
2023-12-02T00:10:20.923Z,84.99
2023-12-02T00:12:01.305Z,85.18
2023-12-02T00:13:41.632Z,85.38
2023-12-02T00:15:22.096Z,85.15
2023-12-02T00:17:02.405Z,85.08
2023-12-02T00:18:42.915Z,84.83
2023-12-02T00:20:23.250Z,84.62
2023-12-02T00:22:03.551Z,84.35
2023-12-02T00:23:43.961Z,84.48
2023-12-02T00:25:24.405Z,85
2023-12-02T00:27:04.761Z,85.09
2023-12-02T00:28:45.121Z,85.21
2023-12-02T00:30:25.516Z,85.53
2023-12-02T00:32:05.970Z,84.86
2023-12-02T00:33:46.448Z,84.56
2023-12-02T00:35:26.688Z,85.47
2023-12-02T00:37:07.026Z,86.38
2023-12-02T00:38:47.450Z,86.25
2023-12-02T00:40:27.774Z,85.97
2023-12-02T00:42:08.196Z,85.59
2023-12-02T00:43:48.612Z,85.74
2023-12-02T00:45:29.019Z,85.57
2023-12-02T00:47:09.387Z,85.46
2023-12-02T00:48:49.807Z,85.52
2023-12-02T00:50:30.092Z,84.43
2023-12-02T00:52:10.499Z,84.36
2023-12-02T00:53:50.831Z,84.32
2023-12-02T00:55:31.223Z,84.74
2023-12-02T00:57:11.667Z,85.31
2023-12-02T00:58:52.039Z,85.12
2023-12-02T01:00:32.446Z,84.9
2023-12-02T01:02:12.937Z,85.44
2023-12-02T01:03:53.239Z,84.53
2023-12-02T01:05:33.542Z,84.88
2023-12-02T01:07:13.882Z,85
2023-12-02T01:08:54.245Z,84.82
2023-12-02T01:10:34.579Z,85.04
2023-12-02T01:12:15.022Z,84.75
2023-12-02T01:13:55.352Z,84.31
2023-12-02T01:15:35.757Z,84.51
2023-12-02T01:17:16.164Z,84.19
2023-12-02T01:18:56.660Z,84.53
2023-12-02T01:20:36.995Z,84.34
2023-12-02T01:22:17.378Z,84.2
2023-12-02T01:23:57.756Z,84.39
2023-12-02T01:25:38.129Z,83.83
2023-12-02T01:27:18.515Z,84.62
2023-12-02T01:28:58.816Z,84.42
2023-12-02T01:30:39.270Z,83.58
2023-12-02T01:32:19.581Z,84.21
2023-12-02T01:33:59.965Z,84.54
2023-12-02T01:35:40.318Z,84.37
2023-12-02T01:37:20.708Z,84.51
2023-12-02T01:39:01.217Z,84.67
2023-12-02T01:40:41.679Z,85.26
2023-12-02T01:42:22.061Z,85.13
2023-12-02T01:44:02.554Z,85.12
2023-12-02T01:45:42.946Z,84.27
2023-12-02T01:47:23.370Z,84.19
2023-12-02T01:49:04.501Z,83.94
2023-12-02T01:50:44.142Z,84.06
2023-12-02T01:52:24.475Z,83.99
2023-12-02T01:54:04.922Z,84.68
2023-12-02T01:55:45.412Z,84.59
2023-12-02T01:57:25.815Z,84.78
2023-12-02T01:59:06.163Z,84.83
2023-12-02T02:00:46.607Z,84.64
2023-12-02T02:02:27.063Z,83.97
2023-12-02T02:04:07.474Z,84.09
2023-12-02T02:05:47.821Z,84.05
2023-12-02T02:07:28.232Z,84
2023-12-02T02:09:08.628Z,84.24
2023-12-02T02:10:48.937Z,84.07
2023-12-02T02:12:29.465Z,84.1
2023-12-02T02:14:09.760Z,84.29
2023-12-02T02:15:50.226Z,84.32
2023-12-02T02:17:30.688Z,84.5
2023-12-02T02:19:11.114Z,84.28
2023-12-02T02:20:51.599Z,84.02
2023-12-02T02:22:31.900Z,84.03
2023-12-02T02:24:12.424Z,84.34
2023-12-02T02:25:52.854Z,84.37
2023-12-02T02:27:33.422Z,84.41
2023-12-02T02:29:13.838Z,84.62
2023-12-02T02:30:54.297Z,84.37
2023-12-02T02:32:34.774Z,84.35
2023-12-02T02:34:15.117Z,84.32
2023-12-02T02:35:55.542Z,84.5
2023-12-02T02:37:35.997Z,84.59
2023-12-02T02:39:16.488Z,84.44
2023-12-02T02:40:56.845Z,84.54
2023-12-02T02:42:37.414Z,84.85
2023-12-02T02:44:17.720Z,84.76
2023-12-02T02:45:58.161Z,85.15
2023-12-02T02:47:38.602Z,85.32
2023-12-02T02:49:19.190Z,85.43
2023-12-02T02:50:59.581Z,85.47
2023-12-02T02:52:39.959Z,85.69
2023-12-02T02:54:20.450Z,85.99
2023-12-02T02:56:00.854Z,86.44
2023-12-02T02:57:41.241Z,86.75
2023-12-02T02:59:21.666Z,86.71
2023-12-02T03:01:02.095Z,86.96
2023-12-02T03:02:42.489Z,87.15
2023-12-02T03:04:22.936Z,87.16
2023-12-02T03:06:03.378Z,87.42
2023-12-02T03:07:43.830Z,87.38
2023-12-02T03:09:24.234Z,87.31
2023-12-02T03:11:04.646Z,86.86
2023-12-02T03:12:45.136Z,86.09
2023-12-02T03:14:25.618Z,85.8
2023-12-02T03:16:06.162Z,86.04
2023-12-02T03:17:46.502Z,86.66
2023-12-02T03:19:26.989Z,86.97
2023-12-02T03:21:07.207Z,87.22
2023-12-02T03:22:47.492Z,87.14
2023-12-02T03:24:27.892Z,87.34
2023-12-02T03:26:08.141Z,87.03
2023-12-02T03:27:48.490Z,86.86
2023-12-02T03:29:28.907Z,86.91
2023-12-02T03:31:09.358Z,86.97
2023-12-02T03:32:49.840Z,86.86
2023-12-02T03:34:30.328Z,86.56
2023-12-02T03:36:10.678Z,86.6
2023-12-02T03:37:51.088Z,86.67
2023-12-02T03:39:31.468Z,86.45
2023-12-02T03:41:11.951Z,86.54
2023-12-02T03:42:52.298Z,86.36
2023-12-02T03:44:32.794Z,86.54
2023-12-02T03:46:13.246Z,86.6
2023-12-02T03:47:53.696Z,86.54
2023-12-02T03:49:34.147Z,86.68
2023-12-02T03:51:14.358Z,86.4
2023-12-02T03:52:54.742Z,86.03
2023-12-02T03:54:35.143Z,85.97
2023-12-02T03:56:15.475Z,85.91
2023-12-02T03:57:55.847Z,85.75
2023-12-02T03:59:36.295Z,85.85
2023-12-02T04:01:16.666Z,85.8
2023-12-02T04:02:56.960Z,85.84
2023-12-02T04:04:37.333Z,86.16
2023-12-02T04:06:17.644Z,86.28
2023-12-02T04:07:58.051Z,86.01
2023-12-02T04:09:38.296Z,85.96
2023-12-02T04:11:18.670Z,85.68
2023-12-02T04:12:58.975Z,85.68
2023-12-02T04:14:39.342Z,86.15
2023-12-02T04:16:19.775Z,86.66
2023-12-02T04:18:00.309Z,86.85
2023-12-02T04:19:40.600Z,85.2
2023-12-02T04:21:20.879Z,84.76
2023-12-02T04:23:01.593Z,84.25
2023-12-02T04:24:41.660Z,84.81
2023-12-02T04:26:22.048Z,84.65
2023-12-02T04:28:02.401Z,84.62
2023-12-02T04:29:42.707Z,84.59
2023-12-02T04:31:23.215Z,84.37
2023-12-02T04:33:03.726Z,85.02
2023-12-02T04:34:43.949Z,84.6
2023-12-02T04:36:24.415Z,84.79
2023-12-02T04:38:04.673Z,84.72
2023-12-02T04:39:44.996Z,84.84
2023-12-02T04:41:25.452Z,84.95
2023-12-02T04:43:05.858Z,84.75
2023-12-02T04:44:46.194Z,84.87
2023-12-02T04:46:26.599Z,85.04
2023-12-02T04:48:06.958Z,85.26
2023-12-02T04:49:47.303Z,85.53
2023-12-02T04:51:27.709Z,85.4
2023-12-02T04:53:08.167Z,85.33
2023-12-02T04:54:48.400Z,85.73
2023-12-02T04:56:28.776Z,85.53
2023-12-02T04:58:09.130Z,85.6
2023-12-02T04:59:49.483Z,85.66
2023-12-02T05:01:29.992Z,85.88
2023-12-02T05:03:10.504Z,85.78
2023-12-02T05:04:50.666Z,85.84
2023-12-02T05:06:31.122Z,85.56
2023-12-02T05:08:11.421Z,85.66
2023-12-02T05:09:51.770Z,85.59
2023-12-02T05:11:32.092Z,86
2023-12-02T05:13:12.443Z,86.07
2023-12-02T05:14:52.930Z,86.27
2023-12-02T05:16:33.371Z,86.63
2023-12-02T05:18:14.001Z,86.85
2023-12-02T05:19:54.163Z,86.57
2023-12-02T05:21:34.607Z,86.43
2023-12-02T05:23:14.893Z,86.23
2023-12-02T05:24:55.284Z,86.36
2023-12-02T05:26:35.817Z,85.67
2023-12-02T05:28:16.247Z,84.99
2023-12-02T05:29:56.710Z,85.43
2023-12-02T05:31:37.032Z,85.21
2023-12-02T05:33:17.535Z,85.13
2023-12-02T05:34:57.850Z,85.59
2023-12-02T05:36:38.290Z,85.59
2023-12-02T05:38:18.622Z,85.74
2023-12-02T05:39:59.041Z,85.9
2023-12-02T05:41:39.359Z,85.94
2023-12-02T05:43:19.750Z,85.97
2023-12-02T05:45:00.278Z,85.53
2023-12-02T05:46:40.622Z,86.27
2023-12-02T05:48:21.080Z,86.07
2023-12-02T05:50:01.433Z,86.11
2023-12-02T05:51:41.944Z,86.31
2023-12-02T05:53:22.085Z,86.3
2023-12-02T05:55:02.485Z,86.65
2023-12-02T05:56:42.878Z,86.32
2023-12-02T05:58:23.248Z,86.57
2023-12-02T06:00:03.738Z,86.69
2023-12-02T06:01:44.043Z,86.9
2023-12-02T06:03:24.321Z,86.72
2023-12-02T06:05:04.665Z,86.84
2023-12-02T06:06:45.027Z,86.82
2023-12-02T06:08:25.413Z,86.78
2023-12-02T06:10:05.819Z,86.84
2023-12-02T06:11:46.193Z,87.11
2023-12-02T06:13:26.610Z,86.82
2023-12-02T06:15:07.065Z,86.63
2023-12-02T06:16:47.529Z,86.59
2023-12-02T06:18:28.141Z,86.69
2023-12-02T06:20:08.380Z,86.63
2023-12-02T06:21:48.790Z,86.67
2023-12-02T06:23:29.254Z,87.02
2023-12-02T06:25:09.555Z,86.88
2023-12-02T06:26:49.961Z,86.95
2023-12-02T06:28:37.900Z,86.65
2023-12-02T06:30:18.389Z,86.68
2023-12-02T06:31:58.768Z,86.83
2023-12-02T06:33:39.237Z,86.75
2023-12-02T06:35:19.688Z,86.34
2023-12-02T06:37:00.202Z,86.06
2023-12-02T06:38:40.595Z,86.04
2023-12-02T06:40:21.031Z,86.17
2023-12-02T06:42:01.511Z,86.08
2023-12-02T06:43:41.720Z,85.63
2023-12-02T06:45:22.127Z,85.6
2023-12-02T06:47:02.528Z,85.28
2023-12-02T06:48:43.019Z,85.63
2023-12-02T06:50:23.328Z,86.24
2023-12-02T06:52:03.726Z,86.38
2023-12-02T06:53:44.053Z,86.37
2023-12-02T06:57:04.848Z,85.32
2023-12-02T06:58:45.160Z,84.53
2023-12-02T07:00:25.510Z,84.58
2023-12-02T07:02:05.959Z,85.24
2023-12-02T07:03:46.344Z,85.77
2023-12-02T07:05:26.600Z,86.01
2023-12-02T07:07:09.056Z,85.52
2023-12-02T07:08:47.484Z,85.46
2023-12-02T07:10:27.961Z,85.58
2023-12-02T07:12:08.411Z,85.19
2023-12-02T07:13:48.838Z,85.43
2023-12-02T07:15:29.339Z,85.71
2023-12-02T07:17:09.577Z,85.6
2023-12-02T07:18:50.036Z,85.49
2023-12-02T07:20:30.340Z,85.58
2023-12-02T07:22:11.109Z,85.56
2023-12-02T07:23:51.188Z,85.34
2023-12-02T07:25:31.613Z,85.39
2023-12-02T07:27:12.078Z,85.49
2023-12-02T07:28:52.476Z,85.51
2023-12-02T07:30:32.918Z,85.74
2023-12-02T07:32:13.300Z,85.85
2023-12-02T07:33:55.865Z,85.82
2023-12-02T07:35:34.126Z,85.81
2023-12-02T07:37:14.561Z,85.33
2023-12-02T07:38:54.964Z,85.3
2023-12-02T07:40:35.287Z,85.82
2023-12-02T07:42:15.546Z,85.63
2023-12-02T07:43:55.832Z,85.76
2023-12-02T07:45:36.214Z,85.78
2023-12-02T07:47:16.707Z,85.65
2023-12-02T07:48:57.190Z,85.67
2023-12-02T07:50:37.446Z,85.47
2023-12-02T07:52:17.890Z,85.76
2023-12-02T07:53:58.307Z,85.72
2023-12-02T07:55:38.733Z,85.4
2023-12-02T07:57:19.223Z,85.54
2023-12-02T07:58:59.559Z,85.38
2023-12-02T08:00:39.966Z,85.47
2023-12-02T08:02:20.467Z,85.56
2023-12-02T08:04:00.771Z,85.63
2023-12-02T08:07:21.482Z,85.6
2023-12-02T08:09:02.301Z,85.51
2023-12-02T08:10:42.323Z,85.13
2023-12-02T08:12:22.653Z,84.94
2023-12-02T08:14:03.078Z,85.08
2023-12-02T08:15:43.500Z,85.21
2023-12-02T08:17:23.843Z,85.05
2023-12-02T08:19:04.257Z,85.19
2023-12-02T08:20:44.772Z,85.15
2023-12-02T08:22:25.190Z,84.99
2023-12-02T08:24:05.592Z,84.89
2023-12-02T08:25:45.967Z,84.62
2023-12-02T08:27:26.321Z,84.22
2023-12-02T08:29:06.809Z,84.1
2023-12-02T08:30:47.100Z,84.28
2023-12-02T08:32:27.502Z,84.49
2023-12-02T08:34:10.668Z,84.41
2023-12-02T08:35:48.269Z,84.15
2023-12-02T08:37:28.753Z,84.14
2023-12-02T08:39:09.035Z,84.31
2023-12-02T08:40:49.466Z,84.06
2023-12-02T08:42:29.807Z,83.92
2023-12-02T08:44:13.439Z,83.99
2023-12-02T08:45:50.529Z,83.95
2023-12-02T08:47:30.854Z,83.7
2023-12-02T08:49:11.244Z,83.63
2023-12-02T08:50:51.675Z,83.82
2023-12-02T08:52:32.248Z,83.7
2023-12-02T08:54:12.620Z,83.8
2023-12-02T08:55:53.081Z,84.07
2023-12-02T08:57:33.529Z,83.77
2023-12-02T08:59:13.989Z,83.83
2023-12-02T09:00:55.958Z,83.76
2023-12-02T09:02:34.900Z,84
2023-12-02T09:04:15.224Z,84.14
2023-12-02T09:05:55.600Z,84.5
2023-12-02T09:07:36.073Z,84.48
2023-12-02T09:09:16.501Z,84.51
2023-12-02T09:10:56.875Z,84.51
2023-12-02T09:12:37.277Z,84.41
2023-12-02T09:14:17.713Z,84.46
2023-12-02T09:15:58.155Z,84.45
2023-12-02T09:17:38.537Z,84.78
2023-12-02T09:19:19.018Z,84.82
2023-12-02T09:20:59.423Z,85.25
2023-12-02T09:22:39.990Z,85.09
2023-12-02T09:24:20.255Z,85.25
2023-12-02T09:26:00.749Z,85.03
2023-12-02T09:27:41.197Z,84.66
2023-12-02T09:29:21.706Z,84.99
2023-12-02T09:31:07.958Z,85.49
2023-12-02T09:32:42.605Z,84.95
2023-12-02T09:34:23.103Z,84.99
2023-12-02T09:36:03.588Z,85.04
2023-12-02T09:37:43.979Z,84.95
2023-12-02T09:39:24.302Z,85.18
2023-12-02T09:41:04.991Z,85.28
2023-12-02T09:42:45.104Z,85.15
2023-12-02T09:44:25.468Z,84.97
2023-12-02T09:46:05.962Z,85.01
2023-12-02T09:47:46.406Z,85.18
2023-12-02T09:49:26.942Z,84.83
2023-12-02T09:51:07.352Z,84.77
2023-12-02T09:52:47.818Z,84.93
2023-12-02T09:54:28.227Z,85.11
2023-12-02T09:56:08.706Z,85.23
2023-12-02T09:57:49.089Z,84.98
2023-12-02T09:59:29.505Z,85.03
2023-12-02T10:01:09.845Z,85.06
2023-12-02T10:02:50.285Z,85.25
2023-12-02T10:04:30.665Z,85
2023-12-02T10:06:11.083Z,84.55
2023-12-02T10:07:51.437Z,84.7
2023-12-02T10:09:31.830Z,84.46
2023-12-02T10:11:12.252Z,84.74
2023-12-02T10:12:52.652Z,84.75
2023-12-02T10:14:33.019Z,84.37
2023-12-02T10:16:13.449Z,84.61
2023-12-02T10:17:53.938Z,84.65
2023-12-02T10:19:34.331Z,84.76
2023-12-02T10:21:14.712Z,84.67
2023-12-02T10:22:55.213Z,84.89
2023-12-02T10:24:35.676Z,84.55
2023-12-02T10:26:16.186Z,85.05
2023-12-02T10:27:56.495Z,85.01
2023-12-02T10:29:36.867Z,85.42
2023-12-02T10:31:17.342Z,85.27
2023-12-02T10:32:57.891Z,85.58
2023-12-02T10:34:38.309Z,85.76
2023-12-02T10:36:18.638Z,85.89
2023-12-02T10:37:59.061Z,85.59
2023-12-02T10:39:39.483Z,85.5
2023-12-02T10:41:19.911Z,85.42
2023-12-02T10:43:00.435Z,85.58
2023-12-02T10:44:40.707Z,85.78
2023-12-02T10:46:21.096Z,85.92
2023-12-02T10:48:01.557Z,86.03
2023-12-02T10:49:41.925Z,86.2
2023-12-02T10:51:22.370Z,86.27
2023-12-02T10:53:02.904Z,86.36
2023-12-02T10:54:43.286Z,86.8
2023-12-02T10:56:23.717Z,86.75
2023-12-02T10:58:04.079Z,86.76
2023-12-02T10:59:44.500Z,86.97
2023-12-02T11:01:24.912Z,87.18
2023-12-02T11:03:05.401Z,87.17
2023-12-02T11:04:45.809Z,87.08
2023-12-02T11:06:26.288Z,87.18
2023-12-02T11:08:06.671Z,87.14
2023-12-02T11:09:49.155Z,87.36
2023-12-02T11:11:27.550Z,87.51
2023-12-02T11:13:07.923Z,87.8
2023-12-02T11:14:48.366Z,87.88
2023-12-02T11:16:28.704Z,88.02
2023-12-02T11:18:09.159Z,87.99
2023-12-02T11:19:49.569Z,87.54
2023-12-02T11:21:29.987Z,87.8
2023-12-02T11:23:10.390Z,87.77
2023-12-02T11:24:50.798Z,87.79
2023-12-02T11:26:31.217Z,87.88
2023-12-02T11:28:11.606Z,87.9
2023-12-02T11:29:51.946Z,87.75
2023-12-02T11:31:32.406Z,87.56
2023-12-02T11:33:12.859Z,87.29
2023-12-02T11:34:53.145Z,87.22
2023-12-02T11:36:33.513Z,87.35
2023-12-02T11:38:13.888Z,86.8
2023-12-02T11:39:54.224Z,87.18
2023-12-02T11:41:34.664Z,87.52
2023-12-02T11:43:15.088Z,87.75
2023-12-02T11:44:55.515Z,87.77
2023-12-02T11:46:35.953Z,87.4
2023-12-02T11:48:16.463Z,87.51
2023-12-02T11:49:56.802Z,87.24
2023-12-02T11:51:37.341Z,87.2
2023-12-02T11:53:17.621Z,87.53
2023-12-02T11:54:58.061Z,87.66
2023-12-02T11:56:38.447Z,87.67
2023-12-02T11:58:18.775Z,87.54
2023-12-02T11:59:59.251Z,87.61
2023-12-02T12:01:39.643Z,87.81
2023-12-02T12:03:20.148Z,88.37
2023-12-02T12:05:00.704Z,88.4
2023-12-02T12:06:41.038Z,88.24
2023-12-02T12:08:23.553Z,88.11
2023-12-02T12:10:01.848Z,88.51
2023-12-02T12:11:42.215Z,88.36
2023-12-02T12:13:22.702Z,88.92
2023-12-02T12:15:03.276Z,88.98
2023-12-02T12:16:43.782Z,89.1
2023-12-02T12:18:23.977Z,88.92
2023-12-02T12:20:04.301Z,89
2023-12-02T12:21:44.655Z,89.27
2023-12-02T12:23:25.078Z,89.35
2023-12-02T12:25:05.518Z,89.7
2023-12-02T12:26:46.039Z,89.68
2023-12-02T12:28:26.446Z,89.65
2023-12-02T12:30:06.802Z,89.62
2023-12-02T12:31:47.198Z,89.5
2023-12-02T12:33:27.832Z,89.39
2023-12-02T12:35:08.122Z,89.25
2023-12-02T12:36:48.597Z,89.14
2023-12-02T12:38:29.145Z,89.06
2023-12-02T12:40:09.456Z,88.98
2023-12-02T12:41:49.928Z,88.53
2023-12-02T12:43:30.372Z,88.21
2023-12-02T12:45:10.848Z,88.15
2023-12-02T12:46:51.277Z,88.41
2023-12-02T12:48:31.740Z,88.55
2023-12-02T12:50:12.197Z,88.59
2023-12-02T12:51:52.586Z,88.18
2023-12-02T12:53:33.114Z,88.34
2023-12-02T12:55:13.531Z,88.95
2023-12-02T12:56:54.018Z,88.73
2023-12-02T12:58:34.415Z,88.09
2023-12-02T13:00:14.970Z,88.32
2023-12-02T13:01:55.307Z,88.13
2023-12-02T13:03:35.743Z,87.99
2023-12-02T13:05:16.318Z,87.6
2023-12-02T13:06:56.722Z,87.44
2023-12-02T13:08:37.172Z,87.92
2023-12-02T13:10:17.510Z,87.92
2023-12-02T13:11:58.074Z,87.54
2023-12-02T13:13:38.323Z,87.58
2023-12-02T13:15:18.734Z,87.48
2023-12-02T13:16:59.142Z,87.37
2023-12-02T13:18:39.535Z,88.12
2023-12-02T13:20:20.013Z,88.41
2023-12-02T13:22:00.537Z,88.34
2023-12-02T13:23:40.861Z,87.8
2023-12-02T13:25:21.388Z,87.93
2023-12-02T13:27:01.713Z,87.54
2023-12-02T13:28:42.127Z,86.9
2023-12-02T13:30:22.580Z,87.48
2023-12-02T13:32:02.980Z,87.45
2023-12-02T13:33:43.481Z,87.66
2023-12-02T13:35:23.906Z,88.44
2023-12-02T13:37:04.294Z,87.6
2023-12-02T13:38:44.681Z,87.88
2023-12-02T13:40:25.129Z,87.59
2023-12-02T13:42:05.642Z,87.47
2023-12-02T13:43:46.050Z,87.47
2023-12-02T13:45:26.599Z,87.4
2023-12-02T13:47:06.972Z,87.65
2023-12-02T13:48:47.379Z,87.58
2023-12-02T13:50:27.867Z,87.59
2023-12-02T13:52:08.251Z,87.97
2023-12-02T13:53:48.717Z,87.8
2023-12-02T13:55:29.212Z,88.06
2023-12-02T13:57:09.795Z,87.93
2023-12-02T13:58:50.144Z,87.99
2023-12-02T14:00:30.528Z,87.87
2023-12-02T14:02:11.038Z,88.13
2023-12-02T14:03:51.686Z,88.27
2023-12-02T14:05:32.064Z,88
2023-12-02T14:07:12.441Z,88.25
2023-12-02T14:08:52.753Z,88.13
2023-12-02T14:10:33.207Z,88.24
2023-12-02T14:12:13.630Z,88.13
2023-12-02T14:13:54.100Z,88.15
2023-12-02T14:15:34.587Z,88.16
2023-12-02T14:17:14.913Z,87.75
2023-12-02T14:18:55.406Z,87.9
2023-12-02T14:20:35.625Z,87.96
2023-12-02T14:22:16.011Z,88.06
2023-12-02T14:23:56.430Z,87.77
2023-12-02T14:25:36.864Z,87.72
2023-12-02T14:27:17.302Z,87.99
2023-12-02T14:28:57.665Z,88.33
2023-12-02T14:30:38.124Z,88.59
2023-12-02T14:32:18.436Z,88.19
2023-12-02T14:33:58.917Z,88.1
2023-12-02T14:35:39.152Z,88.37
2023-12-02T14:37:19.598Z,88.38
2023-12-02T14:39:00.062Z,88.27
2023-12-02T14:40:40.382Z,88.23
2023-12-02T14:42:20.781Z,88.26
2023-12-02T14:44:01.164Z,87.73
2023-12-02T14:45:41.557Z,87.48
2023-12-02T14:47:21.828Z,87.78
2023-12-02T14:49:02.320Z,88
2023-12-02T14:50:42.681Z,88.1
2023-12-02T14:52:23.074Z,88.38
2023-12-02T14:54:03.446Z,88.75
2023-12-02T14:55:43.802Z,88.56
2023-12-02T14:57:24.254Z,88.75
2023-12-02T14:59:04.578Z,88.84
2023-12-02T15:00:44.976Z,89.34
2023-12-02T15:02:25.458Z,89.11
2023-12-02T15:04:06.162Z,89.33
2023-12-02T15:05:46.958Z,89.42
2023-12-02T15:07:26.744Z,89.62
2023-12-02T15:09:07.500Z,89.53
2023-12-02T15:10:47.792Z,89.74
2023-12-02T15:12:28.338Z,89.67
2023-12-02T15:14:08.880Z,89.25
2023-12-02T15:15:49.191Z,89.14
2023-12-02T15:17:31.680Z,88.99
2023-12-02T15:19:10.253Z,89.19
2023-12-02T15:20:50.412Z,89.36
2023-12-02T15:22:30.822Z,89.22
2023-12-02T15:24:11.199Z,89.27
2023-12-02T15:25:51.727Z,89.48
2023-12-02T15:27:32.176Z,89.29
2023-12-02T15:29:12.587Z,89.08
2023-12-02T15:30:52.949Z,89.32
2023-12-02T15:32:33.507Z,89.54
2023-12-02T15:34:13.861Z,89.91
2023-12-02T15:35:54.399Z,90.14
2023-12-02T15:37:34.700Z,90.21
2023-12-02T15:39:15.197Z,90.45
2023-12-02T15:40:55.582Z,90.4
2023-12-02T15:42:36.077Z,90.66
2023-12-02T15:44:16.463Z,90.42
2023-12-02T15:45:56.842Z,90.33
2023-12-02T15:47:37.200Z,90.33
2023-12-02T15:49:17.635Z,90.58
2023-12-02T15:50:58.057Z,90.51
2023-12-02T15:52:38.532Z,90.51
2023-12-02T15:54:19.044Z,90.4
2023-12-02T15:55:59.437Z,90.54
2023-12-02T15:57:39.838Z,90.31
2023-12-02T15:59:20.227Z,90.57
2023-12-02T16:01:00.652Z,90.81
2023-12-02T16:02:41.198Z,91.09
2023-12-02T16:04:21.667Z,91.16
2023-12-02T16:06:02.187Z,90.86
2023-12-02T16:07:42.506Z,91.06
2023-12-02T16:09:23.527Z,91.03
2023-12-02T16:11:03.404Z,91.21
2023-12-02T16:12:43.926Z,91.07
2023-12-02T16:14:24.325Z,91.17
2023-12-02T16:16:04.781Z,91.53
2023-12-02T16:17:45.274Z,91.41
2023-12-02T16:19:25.792Z,91.18
2023-12-02T16:21:06.259Z,91.25
2023-12-02T16:22:46.609Z,91.49
2023-12-02T16:24:27.113Z,91.64
2023-12-02T16:26:07.508Z,91.47
2023-12-02T16:27:47.907Z,91.49
2023-12-02T16:29:28.324Z,91.46
2023-12-02T16:31:08.737Z,91.74
2023-12-02T16:32:49.176Z,91.53
2023-12-02T16:34:29.641Z,91.77
2023-12-02T16:36:10.091Z,91.81
2023-12-02T16:37:50.402Z,91.8
2023-12-02T16:39:30.896Z,92.11
2023-12-02T16:41:11.292Z,92.15
2023-12-02T16:42:51.744Z,92.29
2023-12-02T16:44:32.129Z,92.49
2023-12-02T16:46:12.594Z,92.53
2023-12-02T16:47:53.137Z,92.63
2023-12-02T16:49:33.714Z,92.7
2023-12-02T16:51:14.343Z,92.77
2023-12-02T16:52:54.348Z,92.76
2023-12-02T16:54:34.812Z,92.74
2023-12-02T16:56:21.436Z,92.79
2023-12-02T16:57:55.700Z,92.95
2023-12-02T16:59:36.153Z,93.09
2023-12-02T17:01:16.572Z,93.07
2023-12-02T17:02:56.933Z,93.1
2023-12-02T17:04:37.413Z,93.21
2023-12-02T17:06:17.812Z,93.32
2023-12-02T17:07:58.228Z,93.5
2023-12-02T17:09:38.736Z,93.66
2023-12-02T17:11:19.105Z,93.71
2023-12-02T17:12:59.642Z,93.56
2023-12-02T17:14:40.123Z,93.56
2023-12-02T17:16:21.938Z,93.65
2023-12-02T17:18:01.068Z,93.75
2023-12-02T17:19:41.465Z,93.87
2023-12-02T17:21:21.912Z,94.02
2023-12-02T17:23:02.326Z,94.04
2023-12-02T17:24:43.027Z,94.1
2023-12-02T17:26:23.193Z,94.24
2023-12-02T17:28:03.575Z,94.44
2023-12-02T17:29:44.018Z,94.52
2023-12-02T17:31:24.549Z,94.65
2023-12-02T17:33:05.082Z,94.72
2023-12-02T17:34:45.431Z,94.78
2023-12-02T17:36:25.869Z,94.77
2023-12-02T17:38:06.318Z,94.74
2023-12-02T17:39:46.781Z,94.72
2023-12-02T17:41:27.213Z,94.78
2023-12-02T17:43:07.667Z,94.77
2023-12-02T17:44:48.130Z,94.78
2023-12-02T17:46:28.495Z,94.81
2023-12-02T17:48:08.979Z,94.82
2023-12-02T17:49:49.267Z,94.77
2023-12-02T17:51:29.750Z,94.67
2023-12-02T17:53:10.112Z,94.72
2023-12-02T17:54:50.617Z,94.83
2023-12-02T17:56:31.020Z,94.93
2023-12-02T17:58:11.338Z,95.04
2023-12-02T17:59:51.815Z,95.14
2023-12-02T18:01:32.152Z,95.26
2023-12-02T18:03:12.578Z,95.3
2023-12-02T18:04:53.030Z,95.35
2023-12-02T18:06:33.407Z,95.39
2023-12-02T18:08:13.806Z,95.41
2023-12-02T18:09:54.133Z,95.43
2023-12-02T18:11:34.637Z,95.43
2023-12-02T18:13:15.048Z,95.44
2023-12-02T18:14:55.472Z,95.48
2023-12-02T18:16:35.855Z,95.59
2023-12-02T18:18:16.380Z,95.66
2023-12-02T18:19:56.857Z,95.73
2023-12-02T18:21:37.291Z,95.75
2023-12-02T18:23:17.661Z,95.77
2023-12-02T18:24:57.954Z,95.85
2023-12-02T18:26:38.404Z,95.84
2023-12-02T18:28:18.772Z,95.91
2023-12-02T18:29:59.133Z,95.96
2023-12-02T18:31:39.547Z,96.04
2023-12-02T18:33:19.998Z,96.07
2023-12-02T18:35:00.382Z,96.07
2023-12-02T18:36:40.537Z,96.08
2023-12-02T18:38:20.913Z,96.05
2023-12-02T18:40:01.281Z,96.03
2023-12-02T18:41:41.722Z,95.99
2023-12-02T18:43:22.170Z,95.94
2023-12-02T18:45:02.602Z,95.93
2023-12-02T18:46:42.985Z,95.96
2023-12-02T18:48:23.556Z,96.01
2023-12-02T18:50:03.776Z,96.02
2023-12-02T18:51:44.315Z,96.04
2023-12-02T18:53:24.615Z,96.06
2023-12-02T18:55:05.028Z,96.1
2023-12-02T18:56:45.426Z,96.1
2023-12-02T18:58:25.741Z,96.11
2023-12-02T19:00:06.338Z,96.13
2023-12-02T19:01:46.670Z,96.16
2023-12-02T19:03:27.106Z,96.14
2023-12-02T19:05:07.615Z,96.18
2023-12-02T19:06:47.914Z,96.17
2023-12-02T19:08:28.281Z,96.15
2023-12-02T19:10:08.642Z,96.17
2023-12-02T19:11:49.050Z,96.24
2023-12-02T19:13:29.427Z,96.23
2023-12-02T19:15:09.896Z,96.24
2023-12-02T19:16:50.209Z,96.22
2023-12-02T19:18:30.778Z,96.23
2023-12-02T19:20:11.010Z,96.27
2023-12-02T19:21:51.429Z,96.28
2023-12-02T19:23:31.837Z,96.28
2023-12-02T19:25:12.177Z,96.3
2023-12-02T19:26:52.541Z,96.31
2023-12-02T19:28:32.939Z,96.27
2023-12-02T19:30:13.295Z,96.26
2023-12-02T19:31:53.603Z,96.22
2023-12-02T19:33:34.007Z,96.18
2023-12-02T19:35:14.340Z,96.15
2023-12-02T19:36:54.744Z,96.15
2023-12-02T19:38:35.151Z,96.12
2023-12-02T19:40:15.563Z,96.13
2023-12-02T19:41:55.925Z,96.13
2023-12-02T19:43:36.563Z,96.12
2023-12-02T19:45:16.753Z,95.97
2023-12-02T19:46:57.040Z,95.97
2023-12-02T19:48:37.528Z,95.97
2023-12-02T19:50:17.895Z,95.96
2023-12-02T19:51:58.275Z,95.93
2023-12-02T19:53:38.653Z,95.74
2023-12-02T19:55:19.081Z,95.54
2023-12-02T19:56:59.492Z,95.33
2023-12-02T19:58:39.951Z,95.13
2023-12-02T20:00:20.328Z,95
2023-12-02T20:02:00.811Z,94.9
2023-12-02T20:03:41.137Z,94.83
2023-12-02T20:05:21.621Z,94.75
2023-12-02T20:07:01.988Z,94.73
2023-12-02T20:08:42.373Z,94.64
2023-12-02T20:10:22.769Z,94.52
2023-12-02T20:12:03.232Z,94.4
2023-12-02T20:13:43.566Z,94.35
2023-12-02T20:15:23.967Z,94.5
2023-12-02T20:17:04.398Z,94.49
2023-12-02T20:18:44.847Z,94.36
2023-12-02T20:20:25.179Z,94.29
2023-12-02T20:22:05.595Z,94.3
2023-12-02T20:23:46.046Z,94.23
2023-12-02T20:25:26.476Z,94.23
2023-12-02T20:27:06.913Z,94.24
2023-12-02T20:28:47.209Z,94.27
2023-12-02T20:30:27.608Z,94.24
2023-12-02T20:32:08.034Z,94.17
2023-12-02T20:33:48.424Z,94.22
2023-12-02T20:35:28.798Z,94.22
2023-12-02T20:37:09.238Z,94.24
2023-12-02T20:38:49.718Z,94.09
2023-12-02T20:40:30.190Z,93.86
2023-12-02T20:42:10.571Z,93.74
2023-12-02T20:43:50.886Z,93.67
2023-12-02T20:45:31.287Z,93.77
2023-12-02T20:47:11.673Z,93.82
2023-12-02T20:48:52.151Z,93.65
2023-12-02T20:50:32.497Z,93.47
2023-12-02T20:52:12.918Z,93.38
2023-12-02T20:53:53.333Z,93.24
2023-12-02T20:55:33.753Z,93.08
2023-12-02T20:57:14.228Z,93.1
2023-12-02T20:58:54.575Z,93.24
2023-12-02T21:00:35.075Z,93.42
2023-12-02T21:02:15.409Z,93.44
2023-12-02T21:03:55.916Z,93.4
2023-12-02T21:05:36.417Z,93.08
2023-12-02T21:07:16.830Z,93.1
2023-12-02T21:08:57.229Z,93.1
2023-12-02T21:10:37.650Z,93.04
2023-12-02T21:12:18.131Z,92.94
2023-12-02T21:13:58.581Z,92.82
2023-12-02T21:15:43.460Z,92.58
2023-12-02T21:17:19.392Z,92.31
2023-12-02T21:18:59.870Z,92.22
2023-12-02T21:20:40.191Z,92.22
2023-12-02T21:22:20.644Z,92.06
2023-12-02T21:24:01.739Z,91.55
2023-12-02T21:25:41.546Z,91.36
2023-12-02T21:27:22.049Z,91.58
2023-12-02T21:29:02.419Z,91.6
2023-12-02T21:30:42.993Z,91.49
2023-12-02T21:32:23.276Z,91.78
2023-12-02T21:34:03.796Z,91.89
2023-12-02T21:35:44.154Z,91.79
2023-12-02T21:37:24.529Z,91.56
2023-12-02T21:39:04.993Z,91.51
2023-12-02T21:40:45.315Z,91.62
2023-12-02T21:42:25.723Z,91.55